• Join FlightAware (Why Join?)
  • Login
  • US Flag 
 
03:27AM EST


 

Airport Tracker/Info


-or-


 

Live Flight TrackerFlight Track Log ✈ UPS1337 ✈ 28-Jun-2014 ✈ KRDU - KSDF

Flight Track Log - Related Links

Times and Time Zones

All times are in EDT time to prevent confusion due to time zone crossing. See the UPS1337 flight status page for this flight to view local times or setup timezone preferences in your user account.

Time Position Orientation Groundspeed Altitude Reporting Facility
EDT Latitude Longitude Course Direction KTS MPH feet Rate Location/Type
11:55PM 35.8967 -78.7767 264° West 168 193 1,500  Level Washington Center
11:56PM 35.9325 -78.7678 11° North 225 259 2,900 2,220 Climbing Washington Center
11:57PM 35.9514 -78.8431 287° West 288 331 5,300 2,400 Climbing Washington Center
12:05AM 35.7973 -79.8946 253° West 24,900 2,400 Climbing FlightAware ADS-B
12:06AM 36.3038 -79.8339 253° West  Level Estimated
12:06AM 35.8367 -79.9972 295° West 451 519 26,600  Level FlightAware ADS-B
12:06AM 35.8676 -80.0774 296° West 447 514 28,000 1,920 Climbing FlightAware ADS-B
12:07AM 35.9084 -80.1817 296° West 450 518 29,200 1,680 Climbing FlightAware ADS-B
12:08AM 35.9438 -80.2715 296° West 449 517 30,300 1,740 Climbing FlightAware ADS-B
12:08AM 35.9777 -80.3578 296° West 442 509 31,500 1,320 Climbing FlightAware ADS-B
12:09AM 36.0073 -80.4332 296° West 443 510 32,000 360 Climbing FlightAware ADS-B
12:10AM 36.0505 -80.5437 296° West 447 514 32,000  Level FlightAware ADS-B
12:10AM 36.0881 -80.6405 296° West 442 509 32,000  Level FlightAware ADS-B
12:11AM 36.1236 -80.7322 296° West 439 505 32,000  Level FlightAware ADS-B
12:12AM 36.1522 -80.8061 296° West 439 505 32,000  Level FlightAware ADS-B
12:12AM 36.1915 -80.9079 295° West 439 505 32,000  Level FlightAware ADS-B
12:13AM 36.2254 -80.9959 295° West 441 507 32,000  Level FlightAware ADS-B
12:14AM 36.2530 -81.0678 295° West 440 506 32,000  Level FlightAware ADS-B
12:14AM 36.2929 -81.1723 295° West 439 505 32,000  Level FlightAware ADS-B
12:16AM 36.4012 -81.4566 295° West 436 502 32,000  Level FlightAware ADS-B
12:17AM 36.4222 -81.5078 295° West 441 507 32,000  Level Atlanta Center
12:18AM 36.4708 -81.6431 294° West 441 507 32,000  Level Atlanta Center
12:19AM 36.5214 -81.7783 295° West 441 507 32,000  Level Atlanta Center
12:20AM 36.5717 -81.9139 295° West 441 507 32,000  Level Atlanta Center
12:21AM 36.6239 -82.0497 296° West 436 502 32,000  Level Atlanta Center
12:22AM 36.6742 -82.1856 295° West 436 502 32,000  Level Atlanta Center
12:23AM 36.7436 -82.3736 295° West 439 505 32,000  Level Indianapolis Center
12:24AM 36.8033 -82.5361 295° West 440 506 32,000  Level Indianapolis Center
12:25AM 36.8539 -82.6747 295° West 440 506 32,000  Level Indianapolis Center
12:26AM 36.9061 -82.8189 294° West 439 505 32,000  Level Indianapolis Center
12:27AM 36.9544 -82.9517 295° West 439 505 32,000  Level Indianapolis Center
12:28AM 37.0011 -83.0814 294° West 440 506 32,000  Level Indianapolis Center
12:29AM 37.0517 -83.2225 294° West 441 507 32,000 -840 Level Indianapolis Center
12:35AM 37.3623 -84.1023 294° West 444 511 26,300 -1,200 Descending FlightAware ADS-B (KBRY)
12:36AM 37.4116 -84.2450 294° West 437 503 23,900 -2,400 Descending FlightAware ADS-B (KBRY)
12:37AM 37.4596 -84.3832 293° West 427 491 21,500 -2,400 Descending FlightAware ADS-B (KBRY)
12:38AM 37.5047 -84.5150 293° West 408 470 19,200 -2,460 Descending FlightAware ADS-B (KBRY)
12:39AM 37.5488 -84.6435 293° West 396 456 16,700 -2,520 Descending FlightAware ADS-B (KBRY)
12:40AM 37.5903 -84.7650 293° West 384 442 14,300 -2,340 Descending FlightAware ADS-B (KBRY)
12:41AM 37.6219 -84.8580 293° West 373 429 12,500 -1,920 Descending FlightAware ADS-B (KBRY)
12:42AM 37.6827 -84.9929 312° West 343 395 10,500 -1,320 Descending FlightAware ADS-B (KBRY)
12:44AM 37.7886 -85.1642 295° West 291 335 8,300 -1,200 Descending FlightAware ADS-B (KBRY)
12:45AM 37.8231 -85.2562 297° West 288 331 7,000 -1,200 Descending FlightAware ADS-B (KBRY)
12:46AM 37.8640 -85.3405 302° West 287 330 5,900 -1,080 Descending FlightAware ADS-B (KBRY)
12:47AM 37.9068 -85.4265 302° West 283 326 4,900 -1,020 Descending FlightAware ADS-B (KBRY)
12:48AM 37.9486 -85.5121 301° West 279 321 3,900 -900 Descending FlightAware ADS-B (KBRY)
12:49AM 37.9897 -85.5873 316° Northwest 255 293 3,100 -720 Descending FlightAware ADS-B (KBRY)
12:50AM 38.0370 -85.6434 317° Northwest 219 252 2,500 -480 Descending FlightAware ADS-B (KBRY)
12:51AM 38.0795 -85.6921 321° Northwest 189 217 2,200 -720 Descending FlightAware ADS-B (KBRY)
12:52AM 38.1227 -85.7094 342° North 157 181 1,200 -1,020 Descending FlightAware ADS-B (KBRY)
12:53AM 38.1296 -85.7119 345° North 159 183 1,000 -720 Descending FlightAware ADS-B (KBRY)
01:01AM 38.1667 -85.7333 208° Southwest  Level FlightAware Approximate